createdAt,value
2022-12-25T00:00:28.920Z,99933.77
2022-12-25T00:03:22.753Z,99936.64
2022-12-25T00:06:06.223Z,99945.30
2022-12-25T00:08:39.521Z,99948.48
2022-12-25T00:11:11.991Z,99953.06
2022-12-25T00:13:59.567Z,99960.30
2022-12-25T00:16:42.052Z,99963.71
2022-12-25T00:19:19.457Z,99970.02
2022-12-25T00:21:58.388Z,99964.03
2022-12-25T00:24:49.220Z,99968.42
2022-12-25T00:27:31.052Z,99968.95
2022-12-25T00:30:15.434Z,99967.61
2022-12-25T00:32:47.513Z,99968.63
2022-12-25T00:35:19.396Z,99974.43
2022-12-25T00:37:58.390Z,99976.28
2022-12-25T00:40:46.876Z,99977.24
2022-12-25T00:43:28.247Z,99983.38
2022-12-25T00:45:58.795Z,99991.82
2022-12-25T00:48:38.883Z,99998.47
2022-12-25T00:51:10.827Z,99998.69
2022-12-25T00:53:46.751Z,100004.83
2022-12-25T00:56:15.429Z,100003.05
2022-12-25T00:58:47.157Z,100010.29
2022-12-25T01:01:20.928Z,100012.75
2022-12-25T01:04:00.137Z,100011.30
2022-12-25T01:06:32.511Z,100011.34
2022-12-25T01:09:26.666Z,100013.30
2022-12-25T01:12:08.581Z,100013.52
2022-12-25T01:14:37.787Z,100018.80
2022-12-25T01:17:08.939Z,100019.76
2022-12-25T01:19:41.582Z,100022.48
2022-12-25T01:22:15.648Z,100021.92
2022-12-25T01:24:45.354Z,100019.02
2022-12-25T01:27:16.736Z,100021.92
2022-12-25T01:29:53.060Z,100027.95
2022-12-25T01:32:22.044Z,100035.21
2022-12-25T01:34:56.215Z,100037.52
2022-12-25T01:37:28.327Z,100038.69
2022-12-25T01:40:17.635Z,100041.04
2022-12-25T01:42:54.047Z,100038.77
2022-12-25T01:45:37.915Z,100036.52
2022-12-25T01:48:14.772Z,100041.91
2022-12-25T01:50:47.257Z,100044.38
2022-12-25T01:53:18.682Z,100042.83
2022-12-25T01:55:50.886Z,100043.56
2022-12-25T01:58:22.039Z,100042.73
2022-12-25T02:00:54.023Z,100049.19
2022-12-25T02:03:34.033Z,100052.89
2022-12-25T02:06:17.522Z,100054.25
2022-12-25T02:08:57.983Z,100054.01
2022-12-25T02:11:45.167Z,100050.77
2022-12-25T02:14:14.205Z,100047.41
2022-12-25T02:17:09.867Z,100042.64
2022-12-25T02:20:17.229Z,100047.59
2022-12-25T02:23:04.322Z,100042.53
2022-12-25T02:25:58.913Z,100041.45
2022-12-25T02:28:32.437Z,100048.64
2022-12-25T02:31:10.625Z,100045.14
2022-12-25T02:34:04.312Z,100041.23
2022-12-25T02:36:50.048Z,100043.64
2022-12-25T02:40:04.489Z,100045.94
2022-12-25T02:43:13.175Z,100045.27
2022-12-25T02:46:39.257Z,100041.98
2022-12-25T02:49:38.399Z,100042.73
2022-12-25T02:52:42.011Z,100041.36
2022-12-25T02:55:32.245Z,100049.42
2022-12-25T02:58:31.457Z,100050.04
2022-12-25T03:01:35.133Z,100058.60
2022-12-25T03:04:33.152Z,100058.30
2022-12-25T03:07:14.360Z,100062.04
2022-12-25T03:10:10.014Z,100066.38
2022-12-25T03:12:49.797Z,100071.16
2022-12-25T03:15:40.922Z,100080.62
2022-12-25T03:18:17.916Z,100081.54
2022-12-25T03:21:07.207Z,100081.67
2022-12-25T03:24:05.542Z,100079.34
2022-12-25T03:26:55.644Z,100074.42
2022-12-25T03:41:49.542Z,100078.89
2022-12-25T03:44:56.788Z,100090.58
2022-12-25T03:47:54.096Z,100096.55
2022-12-25T03:50:52.795Z,100102.23
2022-12-25T03:54:02.125Z,100107.41
2022-12-25T03:57:02.575Z,100116.95
2022-12-25T03:59:55.043Z,100126.05
2022-12-25T04:02:58.961Z,100128.85
2022-12-25T04:05:53.067Z,100131.05
2022-12-25T04:08:57.161Z,100131.81
2022-12-25T04:12:07.002Z,100136.04
2022-12-25T04:15:07.992Z,100142.48
2022-12-25T04:17:58.804Z,100137.42
2022-12-25T04:20:59.822Z,100135.41
2022-12-25T04:23:49.605Z,100141.58
2022-12-25T04:26:39.878Z,100143.64
2022-12-25T04:29:35.545Z,100141.20
2022-12-25T04:32:37.473Z,100143.40
2022-12-25T04:35:30.710Z,100140.09
2022-12-25T04:38:13.653Z,100140.93
2022-12-25T04:40:55.785Z,100143.52
2022-12-25T04:43:30.475Z,100140.48
2022-12-25T04:46:08.021Z,100140.08
2022-12-25T04:48:43.032Z,100144.31
2022-12-25T04:51:27.294Z,100155.02
2022-12-25T04:54:02.586Z,100158.27
2022-12-25T04:56:43.357Z,100158.55
2022-12-25T04:59:25.023Z,100155.54
2022-12-25T05:02:06.145Z,100160.02
2022-12-25T05:04:38.601Z,100163.84
2022-12-25T05:07:31.799Z,100158.80
2022-12-25T05:10:10.845Z,100152.28
2022-12-25T05:12:48.688Z,100144.63
2022-12-25T05:15:23.838Z,100148.90
2022-12-25T05:18:10.942Z,100150.71
2022-12-25T05:20:54.524Z,100149.86
2022-12-25T05:23:37.829Z,100149.45
2022-12-25T05:26:24.556Z,100147.77
2022-12-25T05:29:17.896Z,100149.67
2022-12-25T05:32:04.107Z,100158.39
2022-12-25T21:54:15.627Z,99808.25
2022-12-25T21:57:04.756Z,99805.89
2022-12-25T21:59:47.582Z,99810.40
2022-12-25T22:02:26.001Z,99816.21
2022-12-25T22:05:35.303Z,99823.81
2022-12-25T22:08:08.844Z,99828.88
2022-12-25T22:10:42.539Z,99830.20
2022-12-25T22:13:35.389Z,99824.65
2022-12-25T22:16:41.590Z,99815.77
2022-12-25T22:19:34.366Z,99803.52
2022-12-25T22:22:06.308Z,99798.20
2022-12-25T22:24:35.342Z,99788.45
2022-12-25T22:27:12.850Z,99773.84
2022-12-25T22:29:51.216Z,99762.75
2022-12-25T22:32:22.166Z,99761.51
2022-12-25T22:35:11.825Z,99755.18
2022-12-25T22:37:54.257Z,99743.61
2022-12-25T22:40:31.004Z,99752.54
2022-12-25T22:43:19.805Z,99754.27
2022-12-25T22:46:02.479Z,99740.67
2022-12-25T22:48:34.192Z,99734.61
2022-12-25T22:51:23.152Z,99724.57
2022-12-25T22:54:03.968Z,99725.11
2022-12-25T22:56:45.219Z,99734.99
2022-12-25T22:59:20.629Z,99733.84
2022-12-25T23:02:03.196Z,99724.34
2022-12-25T23:04:52.205Z,99722.44
2022-12-25T23:07:41.476Z,99727.13
2022-12-25T23:10:23.133Z,99732.29
2022-12-25T23:13:20.122Z,99731.95
2022-12-25T23:16:13.837Z,99727.05
2022-12-25T23:19:04.017Z,99725.31
2022-12-25T23:22:00.672Z,99711.45
2022-12-25T23:25:07.592Z,99691.13
2022-12-25T23:27:56.509Z,99687.05
2022-12-25T23:30:36.537Z,99676.02
2022-12-25T23:33:25.376Z,99673.37
2022-12-25T23:36:08.641Z,99672.51
2022-12-25T23:38:46.911Z,99675.94
2022-12-25T23:41:35.733Z,99690.43
2022-12-25T23:44:07.019Z,99694.88
2022-12-25T23:46:40.359Z,99697.35
2022-12-25T23:49:09.814Z,99693.74
2022-12-25T23:51:49.286Z,99700.00
2022-12-25T23:54:33.622Z,99694.45
2022-12-25T23:57:12.285Z,99691.06
2022-12-25T23:59:52.109Z,99693.19
